Fire Weather Observation
Issued by NWS Grand Junction, CO

Home | Current Version | Previous Version | Text Only | Print | Product List | Glossary Off
Versions: 1 2 3 4 5 6 7 8 9 10 11 12 13 14 15 16 17 18 19 20 21 22 23 24 25 26 27 28 29 30 31 32 33 34 35 36 37 38 39 40 41 42 43 44 45 46 47 48 49 50

000
SHUS65 KGJT 282025 CCA
FWOGJT

DAILY FIRE WEATHER OBSERVATION
NATIONAL WEATHER SERVICE GRAND JUNCTION CO
223 PM MDT THU AUG 28 2014

CORRECTED FOR WINDS ON METAR.  USED WINDS FROM 1952Z SINCE THE 1953Z
WINDS WERE MISSING.

STATE OF THE WEATHER (W)               2
DRY BULB TEMPERATURE                   71   DEGREES FAHRENHEIT
RELATIVE HUMIDITY (RH)                 47   PERCENT
LIGHTNING ACTIVITY LEVEL
  (LAL - MIDNIGHT TO 2 PM)             1
WIND DIRECTION                         180  DEGREES (C IF CALM)
WIND SPEED                             3    MPH
MAX TEMP (2 PM - 2 PM)                 71   DEGREES FAHRENHEIT
MIN TEMP (2 PM - 2 PM)                 56   DEGREES FAHRENHEIT
MAX RH (2 PM - 2 PM)                   97   PERCENT
MIN RH (2 PM - 2 PM)                   47   PERCENT
PCPN DURATION                          4.1  HOURS
PCPN AMT (2 PM - 2 PM)                 0.03 INCHES
LAL (2 PM - 2 PM)                      2

$$

METAR KGJT 281953Z 17003KT 10SM BKN090 22/10 A3022 RMK AO2 SLP182
      T02170100



USA.gov is the U.S. government's official web portal to all federal, state and local government web resources and services.